site

bvnf.space sources
Log | Files | Refs

DateCommit messageAuthorFiles+-
2022-11-08 16:56gen-index.sh: more robust loopaabacchus1+2-1
2022-11-08 15:42blog: add hr before footeraabacchus1+2-0
2022-11-08 15:40blog: cleanupaabacchus2+3-2
2022-11-01 14:34index: mhmaabacchus1+1-1
2022-10-29 18:41misc: correct titleaabacchus1+1-1
2022-10-29 18:36meta: don't specify https\? unnecessarilyaabacchus9+11-11
2022-10-29 18:20misc: add kiss/obsd comparisonaabacchus3+79-1
2022-09-28 16:29style: remove dark modeaabacchus1+0-9
2022-09-28 16:24style: simplify paddingaabacchus1+2-2
2022-09-28 16:23style: niceraabacchus1+6-8
2022-05-21 13:58meta: add iconaabacchus8+7-7
2022-05-21 12:43books: more consistent stylingaabacchus1+1-1
2022-04-10 00:53omemo.txt: updateaabacchus1+2-3
2022-03-26 17:50books: update link to CoBaabacchus1+1-1
2022-03-13 01:25bookmarks: add realseeds.co.ukaabacchus1+1-0
2022-03-13 01:24meta: make the html more well-formed and XHTMLyaabacchus8+114-113
2022-02-14 02:27bookmarks: add wiki.xxiivv.comaabacchus1+1-0
2022-02-08 03:23bookmarks list: addaabacchus2+35-0
2022-01-19 23:11index: mmhaabacchus1+1-1
2022-01-19 23:07index: update gemini linkaabacchus1+1-1
2022-01-14 21:17index: hmmaabacchus1+1-0
2022-01-11 19:29meta: use tabs for indentation in htmlaabacchus9+1739-1739
2022-01-11 19:19medea: remove trailing spacesaabacchus1+152-152
2022-01-11 19:13footer: use <hr> instead of borderaabacchus3+2-1
2022-01-07 23:53blog: new gempostaabacchus1+2-0
2022-01-07 04:33gen-index.sh: bit more space between header and tableaabacchus1+2-0
2022-01-07 04:30blog: new gempostaabacchus1+2-0
2022-01-04 20:05index: fix typoaabacchus1+1-1
2022-01-03 21:40iliad: add note about missing partsaabacchus1+2-0
2022-01-03 19:56index: add omemo keysaabacchus2+4-0
2021-12-29 19:10index: add more linksaabacchus1+4-1
2021-12-29 00:37index, iliad: make better for small screensaabacchus2+6-5
2021-12-27 19:48books/kalevala.txt: fix git unicode handlingaabacchus2+22847-22847
2021-12-27 19:17books: ehaabacchus1+1-1
2021-12-27 19:07index: tweaksaabacchus1+15-17
2021-12-27 19:04add some booksaabacchus10+71039-3
2021-12-27 15:24style: smaller font sizeaabacchus1+1-1
2021-11-26 10:31blog: add gemini linksaabacchus5+26-6
2021-11-26 10:12Makefile: keep it POSIXaabacchus1+9-1
2021-10-30 18:49index: add link to geminiaabacchus1+3-0
2021-09-25 02:01index: nitphoebos1+2-2
2021-09-25 01:39index: add stuffaabacchus2+37-0
2021-09-23 23:35style: use 78 columns for max-widthaabacchus1+1-1
2021-09-23 23:31style: add dark color scheme, slight emphasis on <code>aabacchus1+18-2
2021-08-24 12:49meta: reduce number of requests to /favicon.ico by providing inline iconaabacchus3+3-1
2021-08-22 04:46blog: add indexaabacchus6+66-3
2021-08-22 04:01blog: 001: tweakaabacchus1+0-1
2021-08-22 03:27blog: keep it ASCIIaabacchus1+1-1
2021-08-22 03:21blog: publish "This Server"aabacchus3+115-0
2021-08-22 01:15index: close tagaabacchus1+1-1
2021-08-22 00:57initialaabacchus3+66-0